Time;durP1;ratioP1;P1;durP2;ratioP2;P2;SDS_P1;SDS_P2;PMS_P1;PMS_P2;Temp;Humidity;BMP_temperature;BMP_pressure;BME280_temperature;BME280_humidity;BME280_pressure;Samples;Min_cycle;Max_cycle;Signal;HPM_P1;HPM_P2
2022/04/05 00:00:17;;;;;;;7.45;3.80;;;;;;;-0.26;48.05;98238.63;5017261;28;20049;-69
2022/04/05 00:02:41;;;;;;;4.45;3.22;;;;;;;-0.24;48.44;98230.69;5017141;28;20045;-69
2022/04/05 00:05:07;;;;;;;4.38;2.90;;;;;;;-0.21;48.24;98235.75;5018761;28;20095;-69
2022/04/05 00:07:31;;;;;;;6.28;3.50;;;;;;;-0.22;48.80;98234.06;5017568;28;20036;-71
2022/04/05 00:09:56;;;;;;;6.35;3.45;;;;;;;-0.11;48.29;98229.97;5007887;28;20060;-69
2022/04/05 00:12:21;;;;;;;7.15;4.82;;;;;;;-0.03;47.87;98230.44;5015546;28;20148;-69
2022/04/05 00:14:49;;;;;;;5.05;3.55;;;;;;;-0.06;48.01;98224.50;5016432;28;20024;-70
2022/04/05 00:17:14;;;;;;;4.82;3.05;;;;;;;-0.12;48.09;98227.44;5015921;28;20053;-67
2022/04/05 00:19:39;;;;;;;7.07;3.40;;;;;;;-0.10;48.20;98222.94;5000310;28;20371;-69
2022/04/05 00:22:04;;;;;;;8.13;3.95;;;;;;;-0.14;48.32;98231.91;5018089;28;20383;-69
2022/04/05 00:24:28;;;;;;;8.32;4.30;;;;;;;-0.21;48.46;98220.03;5007565;28;20036;-67
2022/04/05 00:26:55;;;;;;;6.38;3.55;;;;;;;-0.38;48.59;98219.13;5022233;28;20044;-65
2022/04/05 00:29:22;;;;;;;6.15;3.67;;;;;;;-0.21;48.67;98222.66;5036339;28;20045;-66
2022/04/05 00:31:47;;;;;;;3.60;2.67;;;;;;;-0.21;48.70;98220.88;4998577;28;20127;-71
2022/04/05 00:34:11;;;;;;;7.22;4.03;;;;;;;-0.36;49.06;98221.69;5001060;28;20162;-69
2022/04/05 00:36:36;;;;;;;5.43;3.35;;;;;;;-0.36;49.35;98208.59;5016263;28;20411;-68
2022/04/05 00:39:01;;;;;;;5.60;2.92;;;;;;;-0.34;49.33;98206.75;5012590;28;20063;-68
2022/04/05 00:41:26;;;;;;;8.90;3.35;;;;;;;-0.30;49.01;98213.50;5016552;28;20077;-69
2022/04/05 00:43:51;;;;;;;7.10;3.78;;;;;;;-0.29;49.09;98224.81;5015898;28;20048;-70
2022/04/05 00:46:16;;;;;;;7.88;4.45;;;;;;;-0.28;48.96;98216.91;5016193;28;20570;-69
2022/04/05 00:48:48;;;;;;;5.28;2.58;;;;;;;-0.19;48.81;98211.19;5016422;28;20467;-68
2022/04/05 00:51:14;;;;;;;4.63;2.95;;;;;;;-0.28;49.18;98216.91;5016261;28;20045;-71
2022/04/05 00:53:40;;;;;;;5.80;3.63;;;;;;;-0.35;49.13;98206.81;5000617;28;20041;-71
2022/04/05 00:56:06;;;;;;;3.25;2.42;;;;;;;-0.33;49.08;98199.72;5017747;28;20051;-71
2022/04/05 00:58:33;;;;;;;7.75;3.45;;;;;;;-0.40;49.21;98192.19;5016341;28;20047;-71
2022/04/05 01:00:58;;;;;;;5.22;3.15;;;;;;;-0.38;49.28;98192.09;5017868;28;20045;-71
2022/04/05 01:03:24;;;;;;;5.00;3.53;;;;;;;-0.34;49.42;98193.66;4999846;28;20096;-71
2022/04/05 01:05:51;;;;;;;5.07;3.25;;;;;;;-0.34;49.38;98188.41;4990002;28;20495;-72
2022/04/05 01:08:18;;;;;;;4.68;3.25;;;;;;;-0.25;49.58;98190.56;4983801;28;20043;-72
2022/04/05 01:10:45;;;;;;;6.40;3.58;;;;;;;-0.22;49.01;98186.91;5010187;28;20052;-71
2022/04/05 01:13:09;;;;;;;6.05;3.33;;;;;;;-0.20;49.55;98185.06;5016698;28;20056;-73
2022/04/05 01:15:35;;;;;;;6.28;3.13;;;;;;;-0.27;49.43;98186.31;4999650;28;20041;-73
2022/04/05 01:18:00;;;;;;;3.58;2.25;;;;;;;-0.21;49.00;98181.59;5016224;28;20040;-73
2022/04/05 01:20:24;;;;;;;6.03;3.85;;;;;;;-0.16;49.03;98177.00;4986892;28;20036;-72
2022/04/05 01:22:51;;;;;;;6.10;3.30;;;;;;;-0.12;49.02;98175.06;5008291;28;20055;-72
2022/04/05 01:25:18;;;;;;;7.35;3.88;;;;;;;-0.21;49.00;98178.13;5016769;28;20513;-73
2022/04/05 01:27:42;;;;;;;4.60;3.17;;;;;;;-0.34;49.16;98177.94;5016930;28;20064;-73
2022/04/05 01:30:08;;;;;;;7.57;3.30;;;;;;;-0.20;49.08;98180.69;5015499;28;20076;-74
2022/04/05 01:32:32;;;;;;;6.32;3.60;;;;;;;-0.22;48.94;98181.69;5015225;28;20033;-64
2022/04/05 01:34:57;;;;;;;5.50;3.58;;;;;;;-0.39;49.37;98180.78;5015313;28;20083;-63
2022/04/05 01:37:22;;;;;;;7.55;4.00;;;;;;;-0.24;49.02;98176.53;5016726;28;20077;-64
2022/04/05 01:39:47;;;;;;;8.02;4.03;;;;;;;-0.40;49.77;98175.63;5014741;28;20060;-65
2022/04/05 01:42:14;;;;;;;3.95;2.97;;;;;;;-0.40;49.28;98173.84;5005058;28;20033;-65
2022/04/05 01:44:39;;;;;;;4.82;3.42;;;;;;;-0.44;49.75;98172.31;5015010;28;20047;-66
2022/04/05 01:47:09;;;;;;;6.57;3.40;;;;;;;-0.26;49.41;98164.44;5005466;28;20116;-68
2022/04/05 01:49:35;;;;;;;6.32;3.75;;;;;;;-0.25;49.29;98163.53;4994384;28;20120;-65
2022/04/05 01:52:00;;;;;;;6.22;2.80;;;;;;;-0.26;49.40;98157.44;5015163;28;20509;-68
2022/04/05 01:54:24;;;;;;;3.45;2.15;;;;;;;-0.26;49.36;98152.19;5015371;28;20072;-64
2022/04/05 01:56:51;;;;;;;6.38;3.63;;;;;;;-0.48;49.46;98155.06;5014930;28;20052;-69
2022/04/05 01:59:21;;;;;;;5.75;3.63;;;;;;;-0.42;49.37;98153.91;5012331;28;20047;-67
2022/04/05 02:01:47;;;;;;;4.60;3.40;;;;;;;-0.21;49.19;98149.31;5014995;28;20394;-66
2022/04/05 02:04:12;;;;;;;5.63;3.42;;;;;;;-0.38;49.07;98155.44;5015142;28;20049;-66
2022/04/05 02:06:39;;;;;;;7.53;4.00;;;;;;;-0.44;49.39;98146.13;5005771;28;20044;-69
2022/04/05 02:09:04;;;;;;;7.50;3.78;;;;;;;-0.37;49.09;98142.28;5004985;28;20051;-69
2022/04/05 02:11:29;;;;;;;5.15;2.70;;;;;;;-0.32;49.40;98141.19;4987579;28;20045;-69
2022/04/05 02:14:00;;;;;;;7.53;4.15;;;;;;;-0.48;49.45;98142.00;5013470;28;20048;-69
2022/04/05 02:16:26;;;;;;;6.03;3.45;;;;;;;-0.65;50.33;98141.13;5004023;28;20048;-68
2022/04/05 02:18:52;;;;;;;5.68;3.42;;;;;;;-0.67;50.16;98146.44;4988462;28;20053;-70
2022/04/05 02:21:19;;;;;;;7.18;2.95;;;;;;;-0.62;49.86;98136.59;4997095;28;20048;-70
2022/04/05 02:23:46;;;;;;;4.78;3.47;;;;;;;-0.66;49.63;98137.66;4981038;28;20495;-69
2022/04/05 02:26:16;;;;;;;5.35;2.70;;;;;;;-0.79;50.72;98131.38;5015480;28;20103;-69
2022/04/05 02:28:47;;;;;;;6.28;3.55;;;;;;;-0.77;50.45;98132.97;5016207;28;20040;-71
2022/04/05 02:31:15;;;;;;;1.70;1.58;;;;;;;-0.66;50.41;98131.59;5017136;28;20038;-67
2022/04/05 02:33:41;;;;;;;2.28;1.75;;;;;;;-0.70;50.39;98132.69;5013369;28;20123;-70
2022/04/05 02:36:13;;;;;;;5.72;3.53;;;;;;;-0.83;50.54;98121.97;4966053;28;20056;-70
2022/04/05 02:38:39;;;;;;;5.30;2.92;;;;;;;-0.87;50.54;98120.44;5015426;28;20135;-72
2022/04/05 02:41:06;;;;;;;3.95;2.72;;;;;;;-0.99;51.10;98115.81;5016231;28;20569;-77
2022/04/05 02:43:34;;;;;;;4.53;3.10;;;;;;;-1.15;51.51;98116.56;5004118;28;20068;-67
2022/04/05 02:45:59;;;;;;;3.47;2.72;;;;;;;-1.13;51.58;98125.16;4998953;28;20121;-71
2022/04/05 02:48:26;;;;;;;4.50;3.20;;;;;;;-1.18;51.56;98111.50;5010227;28;20099;-69
2022/04/05 02:50:53;;;;;;;5.88;3.30;;;;;;;-1.13;51.34;98112.09;4999434;28;20045;-70
2022/04/05 02:53:19;;;;;;;5.40;3.38;;;;;;;-1.21;51.42;98118.63;4995748;28;20053;-70
2022/04/05 02:55:45;;;;;;;4.65;3.13;;;;;;;-1.23;51.13;98123.91;4978760;28;20116;-70
2022/04/05 02:58:11;;;;;;;3.03;2.47;;;;;;;-1.16;51.70;98120.09;4990780;28;20057;-68
2022/04/05 03:00:37;;;;;;;5.15;3.13;;;;;;;-1.17;51.66;98126.25;4980501;28;20041;-69
2022/04/05 03:03:08;;;;;;;5.00;3.33;;;;;;;-1.44;51.81;98126.72;5012964;28;20116;-70
2022/04/05 03:05:33;;;;;;;5.38;3.10;;;;;;;-1.42;52.50;98117.88;4997097;28;20502;-73
2022/04/05 03:08:03;;;;;;;4.18;2.85;;;;;;;-1.31;52.01;98128.69;4996428;28;20102;-71
2022/04/05 03:10:29;;;;;;;3.95;2.83;;;;;;;-1.29;52.23;98124.22;5014271;28;20075;-70
2022/04/05 03:12:54;;;;;;;4.22;3.10;;;;;;;-1.38;52.05;98129.06;5014541;28;20128;-71
2022/04/05 03:15:20;;;;;;;2.85;2.33;;;;;;;-1.28;51.93;98125.06;4998317;28;20068;-72
2022/04/05 03:17:47;;;;;;;5.55;4.10;;;;;;;-1.28;52.13;98127.69;5005425;28;20122;-72
2022/04/05 03:20:17;;;;;;;7.80;3.78;;;;;;;-1.22;51.86;98130.84;5014752;28;20403;-69
2022/04/05 03:22:47;;;;;;;4.82;2.97;;;;;;;-1.04;51.67;98117.81;5021850;28;20044;-69
2022/04/05 03:25:12;;;;;;;11.20;3.60;;;;;;;-0.95;51.65;98117.34;5021539;28;20047;-70
2022/04/05 03:27:42;;;;;;;5.93;2.85;;;;;;;-0.71;51.52;98116.13;5012257;28;20446;-70
2022/04/05 03:30:09;;;;;;;4.00;2.53;;;;;;;-0.53;50.63;98120.41;5020581;28;20052;-69
2022/04/05 03:32:34;;;;;;;1.65;1.27;;;;;;;-0.46;50.45;98116.59;5030895;28;20819;-68
2022/04/05 03:34:59;;;;;;;6.25;3.47;;;;;;;-0.65;50.14;98110.56;5005413;28;20414;-68
2022/04/05 03:37:26;;;;;;;5.82;2.80;;;;;;;-0.72;51.35;98114.44;5003202;28;20041;-68
2022/04/05 03:39:51;;;;;;;3.53;2.97;;;;;;;-0.74;51.29;98116.28;5003460;28;20059;-69
2022/04/05 03:42:17;;;;;;;8.00;3.00;;;;;;;-0.63;50.54;98113.97;5004960;28;20051;-69
2022/04/05 03:44:42;;;;;;;5.38;2.75;;;;;;;-0.63;50.59;98107.88;5007564;28;20048;-69
2022/04/05 03:47:07;;;;;;;3.20;1.92;;;;;;;-0.68;50.93;98104.69;5021401;28;20037;-75
2022/04/05 03:49:32;;;;;;;3.15;2.63;;;;;;;-0.73;50.85;98099.66;4980572;28;20497;-76
2022/04/05 03:51:56;;;;;;;6.28;2.90;;;;;;;-0.69;50.88;98100.38;5004685;28;20111;-78
2022/04/05 03:54:22;;;;;;;2.60;2.40;;;;;;;-0.75;50.99;98106.72;5002050;28;20048;-72
2022/04/05 03:56:47;;;;;;;4.88;2.75;;;;;;;-0.60;50.84;98107.75;4984226;28;20100;-73
2022/04/05 03:59:13;;;;;;;6.40;3.80;;;;;;;-0.69;50.96;98097.75;4997039;28;20148;-74
2022/04/05 04:01:38;;;;;;;5.13;3.40;;;;;;;-0.68;51.27;98109.91;5028966;28;20072;-74
2022/04/05 04:04:03;;;;;;;6.00;3.78;;;;;;;-0.57;50.56;98103.19;5021428;28;20392;-74
2022/04/05 04:06:28;;;;;;;3.30;2.25;;;;;;;-0.57;50.80;98113.69;5005120;28;20490;-74
2022/04/05 04:08:54;;;;;;;5.40;3.00;;;;;;;-0.30;49.99;98113.16;4972082;28;20060;-74
2022/04/05 04:11:20;;;;;;;8.48;1.83;;;;;;;-0.25;50.31;98122.47;5004651;28;20118;-72
2022/04/05 04:13:47;;;;;;;4.07;3.00;;;;;;;-0.41;50.32;98109.31;5010591;28;20144;-72
2022/04/05 04:16:16;;;;;;;7.93;2.63;;;;;;;-0.26;50.58;98114.69;5019496;28;20612;-71
2022/04/05 04:18:43;;;;;;;5.97;3.85;;;;;;;-0.15;49.84;98104.50;5002977;28;20103;-77
2022/04/05 04:21:08;;;;;;;7.28;3.90;;;;;;;0.18;50.20;98105.31;5003152;28;20036;-74
2022/04/05 04:23:33;;;;;;;5.97;3.03;;;;;;;0.63;48.81;98103.72;5020254;28;20053;-74
2022/04/05 04:25:58;;;;;;;6.25;3.10;;;;;;;0.92;48.28;98095.03;5019907;28;20106;-72
2022/04/05 04:28:23;;;;;;;3.72;2.92;;;;;;;1.04;47.19;98096.09;5020832;28;20051;-73
2022/04/05 04:30:49;;;;;;;6.47;3.55;;;;;;;0.95;47.68;98094.88;5020274;28;20045;-75
2022/04/05 04:33:13;;;;;;;6.00;3.67;;;;;;;0.78;47.99;98087.13;5017098;28;20400;-73
2022/04/05 04:35:40;;;;;;;3.65;2.63;;;;;;;0.83;48.23;98100.81;5018554;28;20407;-74
2022/04/05 04:38:07;;;;;;;1.48;1.35;;;;;;;0.94;47.96;98098.41;5000710;28;20041;-74
2022/04/05 04:40:32;;;;;;;7.45;3.63;;;;;;;0.73;48.10;98097.03;5001122;28;20036;-73
2022/04/05 04:42:56;;;;;;;6.80;4.15;;;;;;;0.70;48.32;98095.41;5000834;28;20032;-73
2022/04/05 04:45:26;;;;;;;9.88;3.53;;;;;;;0.77;48.31;98092.47;5000921;28;20044;-73
2022/04/05 04:47:51;;;;;;;6.72;3.97;;;;;;;0.51;49.43;98093.91;5017873;28;20056;-73
2022/04/05 04:50:15;;;;;;;3.92;2.88;;;;;;;0.97;48.22;98090.38;5016619;28;20036;-74
2022/04/05 04:52:40;;;;;;;3.03;2.28;;;;;;;1.18;48.66;98095.31;4999660;28;20063;-73
2022/04/05 04:55:06;;;;;;;2.45;1.52;;;;;;;1.38;48.09;98105.47;5016674;28;20475;-72
2022/04/05 04:57:31;;;;;;;4.30;3.05;;;;;;;1.14;47.58;98078.03;4983233;28;20052;-72
2022/04/05 04:59:56;;;;;;;4.63;3.53;;;;;;;1.16;48.34;98078.81;4999972;28;20506;-73
2022/04/05 05:02:24;;;;;;;5.57;3.40;;;;;;;0.95;49.12;98075.66;5017092;28;20499;-73
2022/04/05 05:04:49;;;;;;;6.40;3.65;;;;;;;1.00;48.94;98081.50;5019842;28;20062;-72
2022/04/05 05:07:15;;;;;;;2.13;1.92;;;;;;;1.12;48.66;98069.44;5009227;28;20564;-72
2022/04/05 05:09:39;;;;;;;8.23;4.15;;;;;;;0.88;49.50;98067.31;5026645;28;20580;-75
2022/04/05 05:12:05;;;;;;;5.05;2.72;;;;;;;1.09;49.17;98076.56;5007647;28;20429;-74
2022/04/05 05:14:30;;;;;;;8.45;4.30;;;;;;;1.31;49.14;98078.75;5020166;28;20348;-73
2022/04/05 05:16:55;;;;;;;7.75;4.43;;;;;;;1.65;48.74;98079.38;4999245;28;20411;-74
2022/04/05 05:19:21;;;;;;;6.32;4.07;;;;;;;1.79;48.28;98077.59;5016943;28;20051;-75
2022/04/05 05:21:45;;;;;;;3.25;2.28;;;;;;;2.15;47.42;98074.47;5017064;28;20059;-75
2022/04/05 05:24:10;;;;;;;5.85;3.90;;;;;;;2.42;47.00;98066.63;5017397;28;20044;-75
2022/04/05 05:26:35;;;;;;;8.82;4.78;;;;;;;2.48;46.12;98075.94;5015388;28;20522;-75
2022/04/05 05:28:59;;;;;;;8.18;4.22;;;;;;;2.54;45.92;98065.00;5003359;28;20044;-75
2022/04/05 05:31:24;;;;;;;8.27;4.70;;;;;;;2.46;45.92;98072.56;5016942;28;20041;-75
2022/04/05 05:33:49;;;;;;;4.10;2.05;;;;;;;2.74;45.67;98069.81;5015514;28;20364;-74
2022/04/05 05:36:14;;;;;;;6.78;4.00;;;;;;;2.57;46.43;98056.09;5016832;28;20548;-74
2022/04/05 05:38:38;;;;;;;8.20;4.05;;;;;;;2.78;46.17;98062.59;4998879;28;20136;-75
2022/04/05 05:41:04;;;;;;;9.05;4.70;;;;;;;3.11;45.42;98064.78;5015265;28;20049;-75
2022/04/05 05:43:29;;;;;;;8.25;5.07;;;;;;;3.47;44.45;98051.78;4998582;28;20043;-75
2022/04/05 05:45:53;;;;;;;3.75;3.38;;;;;;;4.01;43.99;98047.13;5016663;28;20041;-75
2022/04/05 05:48:18;;;;;;;7.65;5.15;;;;;;;4.48;43.01;98047.31;4998924;28;20044;-75
2022/04/05 05:50:43;;;;;;;6.78;4.13;;;;;;;4.96;42.63;98048.19;5016475;28;20063;-75
2022/04/05 05:53:08;;;;;;;7.60;4.20;;;;;;;5.36;40.63;98053.94;5015309;28;20041;-75
2022/04/05 05:55:35;;;;;;;7.88;4.15;;;;;;;5.68;40.56;98052.34;5015040;28;20055;-75
2022/04/05 05:58:02;;;;;;;10.43;5.13;;;;;;;5.62;40.24;98046.69;5014486;28;20041;-75
2022/04/05 06:00:27;;;;;;;9.45;4.45;;;;;;;5.54;40.38;98041.13;5014978;28;20044;-76
2022/04/05 06:02:56;;;;;;;8.75;4.50;;;;;;;5.83;40.22;98045.03;4998586;28;20047;-75
2022/04/05 06:05:21;;;;;;;6.53;4.35;;;;;;;6.28;39.16;98032.66;5016417;28;20098;-75
2022/04/05 06:07:46;;;;;;;7.60;3.47;;;;;;;6.59;38.52;98044.28;4998386;28;20119;-76
2022/04/05 06:10:13;;;;;;;9.73;4.55;;;;;;;6.28;37.99;98010.66;5016064;28;20135;-75
2022/04/05 06:12:43;;;;;;;9.73;4.40;;;;;;;6.29;38.80;98020.28;5016285;28;20182;-75
2022/04/05 06:15:10;;;;;;;6.55;4.22;;;;;;;6.51;38.69;98015.78;4998067;28;20072;-76
2022/04/05 06:17:36;;;;;;;7.03;4.60;;;;;;;6.56;38.50;98010.09;5016032;28;20102;-75
2022/04/05 06:20:02;;;;;;;9.40;2.63;;;;;;;6.84;38.63;98020.13;4997883;28;20044;-75
2022/04/05 06:22:27;;;;;;;3.95;3.10;;;;;;;6.49;38.35;98016.88;5014445;28;20055;-74
2022/04/05 06:24:52;;;;;;;5.90;3.80;;;;;;;6.08;39.61;98015.75;5015905;28;20037;-76
2022/04/05 06:27:17;;;;;;;8.35;4.40;;;;;;;5.91;39.11;98005.63;4997788;28;20040;-77
2022/04/05 06:29:42;;;;;;;11.65;4.50;;;;;;;6.14;39.57;97998.53;5014506;28;20045;-75
2022/04/05 06:32:07;;;;;;;6.45;3.83;;;;;;;6.55;39.08;98003.13;4998121;28;20571;-76
2022/04/05 06:34:31;;;;;;;8.23;4.90;;;;;;;7.31;37.53;98003.91;5014780;28;20516;-76
2022/04/05 06:36:58;;;;;;;9.40;4.60;;;;;;;7.23;36.99;98009.84;5015827;28;20044;-77
2022/04/05 06:39:23;;;;;;;8.25;4.53;;;;;;;7.17;37.29;98015.66;5016474;28;20102;-76
2022/04/05 06:41:48;;;;;;;8.05;4.22;;;;;;;6.71;38.62;98019.47;4998081;28;20072;-77
2022/04/05 06:44:13;;;;;;;7.95;4.18;;;;;;;6.27;39.09;98014.25;5014512;28;20048;-74
2022/04/05 06:46:37;;;;;;;7.82;4.97;;;;;;;5.83;39.69;98008.00;5014850;28;20055;-75
2022/04/05 06:49:03;;;;;;;12.65;4.25;;;;;;;5.82;40.27;98019.53;5014713;28;20515;-72
2022/04/05 06:51:28;;;;;;;7.00;4.32;;;;;;;5.57;40.48;98019.75;4997691;28;20040;-74
2022/04/05 06:53:53;;;;;;;6.97;4.47;;;;;;;5.47;40.72;98011.69;5015516;28;20045;-75
2022/04/05 06:56:21;;;;;;;8.63;4.68;;;;;;;5.65;40.98;98006.78;4997855;28;20048;-73
2022/04/05 06:58:46;;;;;;;8.38;4.57;;;;;;;6.05;39.92;98005.38;5014223;28;20104;-74
2022/04/05 07:01:11;;;;;;;11.80;5.32;;;;;;;6.36;38.88;98002.94;5014357;28;20072;-75
2022/04/05 07:03:36;;;;;;;8.93;4.25;;;;;;;6.90;38.23;97984.34;5001098;28;20048;-73
2022/04/05 07:06:00;;;;;;;8.43;4.05;;;;;;;7.15;37.57;97986.63;4983096;28;20052;-74
2022/04/05 07:08:25;;;;;;;4.75;3.53;;;;;;;6.99;37.43;97988.06;5030592;28;20087;-72
2022/04/05 07:10:51;;;;;;;7.15;4.00;;;;;;;7.07;37.65;97981.16;5014189;28;20122;-73
2022/04/05 07:13:15;;;;;;;7.13;3.97;;;;;;;7.49;37.73;97979.31;5015013;28;20514;-73
2022/04/05 07:15:40;;;;;;;5.65;3.70;;;;;;;7.40;36.79;97974.81;5018927;28;20507;-75
2022/04/05 07:18:05;;;;;;;5.85;3.40;;;;;;;7.23;36.92;97973.56;5019451;28;20041;-73
2022/04/05 07:20:30;;;;;;;8.85;4.07;;;;;;;7.60;35.97;97955.38;5017797;28;20036;-73
2022/04/05 07:22:55;;;;;;;7.05;4.15;;;;;;;7.86;35.95;97965.53;5022152;28;20450;-72
2022/04/05 07:25:20;;;;;;;8.48;4.07;;;;;;;8.49;34.94;97971.47;5002040;28;20523;-73
2022/04/05 07:27:45;;;;;;;7.63;3.90;;;;;;;9.11;34.51;97955.16;5020196;28;20045;-72
2022/04/05 07:30:11;;;;;;;7.20;4.50;;;;;;;9.87;32.80;97965.72;5021452;28;20068;-73
2022/04/05 07:32:37;;;;;;;6.57;3.63;;;;;;;10.71;31.61;97959.28;5015393;28;20950;-72
2022/04/05 07:35:03;;;;;;;7.18;3.97;;;;;;;11.15;30.66;97940.66;5015636;28;20041;-73
2022/04/05 07:37:30;;;;;;;5.50;2.92;;;;;;;12.16;29.75;97949.81;5014952;28;20107;-71
2022/04/05 07:39:54;;;;;;;7.05;3.92;;;;;;;12.59;27.92;97951.44;5014900;28;20120;-70
2022/04/05 07:42:20;;;;;;;7.55;4.82;;;;;;;12.93;27.30;97936.13;4997128;28;20123;-71
2022/04/05 07:44:44;;;;;;;7.65;3.90;;;;;;;13.76;26.51;97935.94;4996821;28;20049;-71
2022/04/05 07:47:09;;;;;;;7.43;3.97;;;;;;;14.90;25.81;97938.94;4980434;28;20045;-71
2022/04/05 07:49:34;;;;;;;5.38;3.55;;;;;;;15.16;24.11;97949.31;4980248;28;20048;-71
2022/04/05 07:51:59;;;;;;;9.52;4.75;;;;;;;14.78;25.52;97940.38;4996896;28;20045;-73
2022/04/05 07:54:23;;;;;;;7.00;3.85;;;;;;;14.70;24.34;97943.09;4996807;28;20075;-73
2022/04/05 07:56:48;;;;;;;6.10;4.55;;;;;;;14.31;24.36;97932.41;4980347;28;20135;-73
2022/04/05 07:59:13;;;;;;;6.97;4.32;;;;;;;15.38;24.31;97912.72;5014787;28;20545;-72
2022/04/05 08:01:37;;;;;;;8.07;4.85;;;;;;;16.06;23.52;97920.59;4980306;28;20048;-73
2022/04/05 08:04:02;;;;;;;5.78;4.30;;;;;;;17.03;22.33;97921.97;5014670;28;20060;-74
2022/04/05 08:06:31;;;;;;;6.55;3.83;;;;;;;17.52;21.98;97912.22;4996761;28;20083;-75
2022/04/05 08:08:56;;;;;;;6.25;4.40;;;;;;;16.50;22.11;97920.53;5015448;28;20544;-73
2022/04/05 08:11:21;;;;;;;8.35;4.30;;;;;;;15.62;22.94;97920.56;5000392;28;20503;-73
2022/04/05 08:13:45;;;;;;;6.22;4.05;;;;;;;15.77;22.38;97926.81;5018214;28;20159;-74
2022/04/05 08:16:10;;;;;;;6.78;4.28;;;;;;;16.79;22.20;97902.69;5018473;28;20498;-73
2022/04/05 08:18:35;;;;;;;6.40;4.40;;;;;;;16.58;21.68;97928.50;5017982;28;20037;-74
2022/04/05 08:21:00;;;;;;;9.75;5.20;;;;;;;15.88;22.33;97912.91;5000430;28;20411;-74
2022/04/05 08:23:25;;;;;;;9.15;5.22;;;;;;;15.77;22.33;97904.47;5018710;28;20047;-74
2022/04/05 08:25:50;;;;;;;5.15;4.32;;;;;;;15.82;22.99;97912.81;5000442;28;20041;-74
2022/04/05 08:28:15;;;;;;;7.85;4.88;;;;;;;15.64;23.08;97909.66;5000449;28;20047;-74
2022/04/05 08:30:40;;;;;;;7.85;4.47;;;;;;;16.74;21.73;97908.63;4983872;28;20062;-73
2022/04/05 08:33:05;;;;;;;7.72;4.53;;;;;;;16.77;21.48;97926.25;5000377;28;20052;-74
2022/04/05 08:35:30;;;;;;;5.95;3.53;;;;;;;16.10;21.41;97900.38;5000114;28;20040;-74
2022/04/05 08:37:56;;;;;;;5.03;3.65;;;;;;;16.75;22.15;97907.59;5016566;28;20040;-73
2022/04/05 08:40:23;;;;;;;7.35;4.95;;;;;;;16.59;21.68;97894.38;5000039;28;20091;-75
2022/04/05 08:42:51;;;;;;;7.32;4.53;;;;;;;16.37;21.78;97903.38;5018491;28;20045;-74
2022/04/05 08:45:18;;;;;;;5.20;3.70;;;;;;;16.26;21.64;97910.09;5018219;28;20045;-74
2022/04/05 08:47:46;;;;;;;5.88;4.30;;;;;;;16.11;20.45;97895.84;4984091;28;20028;-73
2022/04/05 08:50:12;;;;;;;10.40;4.28;;;;;;;16.37;21.26;97906.06;5000059;28;20136;-74
2022/04/05 08:52:37;;;;;;;3.35;2.85;;;;;;;15.35;21.62;97905.03;5017766;28;20044;-74
2022/04/05 08:55:02;;;;;;;4.13;3.25;;;;;;;14.98;22.47;97889.75;4999990;28;20071;-74
2022/04/05 08:57:27;;;;;;;15.73;4.68;;;;;;;13.51;23.44;97891.47;5017393;28;20564;-74
2022/04/05 08:59:52;;;;;;;5.75;3.58;;;;;;;14.23;23.07;97885.00;4983819;28;20211;-74
2022/04/05 09:02:25;;;;;;;5.78;3.80;;;;;;;13.85;23.16;97883.19;5017770;28;20051;-73
2022/04/05 09:04:50;;;;;;;6.55;3.65;;;;;;;14.71;23.04;97875.84;4999651;28;20052;-75
2022/04/05 09:07:21;;;;;;;10.27;4.00;;;;;;;15.35;22.05;97887.06;4982919;28;20033;-75
2022/04/05 09:10:05;;;;;;;3.50;2.05;;;;;;;15.42;21.73;97877.28;4999413;28;20044;-73
2022/04/05 09:12:38;;;;;;;4.03;3.63;;;;;;;14.72;21.63;97877.53;4999068;28;20037;-75
2022/04/05 09:15:16;;;;;;;2.88;2.53;;;;;;;15.39;21.72;97899.13;4999456;28;20043;-75
2022/04/05 09:17:42;;;;;;;5.43;3.55;;;;;;;14.65;21.62;97873.06;4983154;28;20471;-73
2022/04/05 09:20:08;;;;;;;5.32;3.58;;;;;;;13.38;22.55;97878.63;5017057;28;20083;-75
2022/04/05 09:22:34;;;;;;;4.95;3.88;;;;;;;12.05;23.64;97877.97;4999681;28;20036;-73
2022/04/05 09:25:04;;;;;;;4.95;3.10;;;;;;;12.08;23.15;97886.50;4999626;28;20415;-74
2022/04/05 09:27:49;;;;;;;5.32;4.05;;;;;;;12.24;23.52;97869.69;4999506;28;20048;-74
2022/04/05 09:30:16;;;;;;;5.32;3.53;;;;;;;12.62;23.81;97884.31;5000165;28;20048;-74
2022/04/05 09:32:43;;;;;;;8.93;3.53;;;;;;;12.98;22.40;97884.81;4999839;28;20127;-74
2022/04/05 09:35:09;;;;;;;4.55;3.90;;;;;;;12.48;23.91;97858.22;4982919;28;20044;-74
2022/04/05 09:37:38;;;;;;;5.78;3.67;;;;;;;12.85;24.10;97895.19;4999885;28;20045;-72
2022/04/05 09:40:18;;;;;;;4.28;3.55;;;;;;;12.56;23.16;97864.41;5032991;28;20036;-76
2022/04/05 09:43:10;;;;;;;4.53;3.53;;;;;;;12.83;24.09;97860.59;5011648;28;20053;-73
2022/04/05 09:45:47;;;;;;;5.25;3.78;;;;;;;13.36;24.29;97852.03;5000653;28;20133;-73
2022/04/05 09:48:12;;;;;;;4.55;3.88;;;;;;;13.37;23.25;97847.50;5017051;28;20036;-75
2022/04/05 09:51:17;;;;;;;11.65;4.65;;;;;;;14.29;22.34;97867.41;4998524;28;20041;-74
2022/04/05 09:53:50;;;;;;;6.40;3.67;;;;;;;14.58;21.79;97837.22;4901367;29;20059;-73
2022/04/05 09:56:16;;;;;;;5.55;3.97;;;;;;;14.38;21.56;97853.75;4901229;29;20616;-75
2022/04/05 09:58:44;;;;;;;4.97;3.55;;;;;;;15.03;21.88;97831.81;4900860;29;20074;-73
2022/04/05 10:01:11;;;;;;;5.93;4.18;;;;;;;15.95;20.81;97824.31;4916724;29;20043;-75
2022/04/05 10:03:43;;;;;;;8.15;3.80;;;;;;;16.19;20.39;97844.66;4916700;29;20051;-72
2022/04/05 10:06:09;;;;;;;5.15;3.85;;;;;;;16.52;19.67;97845.84;4916982;29;20406;-73
2022/04/05 10:08:35;;;;;;;6.35;3.72;;;;;;;15.45;19.94;97841.16;4918376;29;20127;-72
2022/04/05 10:11:01;;;;;;;4.63;3.40;;;;;;;16.09;18.92;97831.50;4904341;29;20050;-72
2022/04/05 10:13:27;;;;;;;6.03;3.45;;;;;;;14.86;20.54;97815.06;4904708;29;20046;-72
2022/04/05 10:15:53;;;;;;;4.45;3.40;;;;;;;14.86;21.44;97822.28;4919540;29;20059;-72
2022/04/05 10:18:21;;;;;;;3.90;3.38;;;;;;;13.80;21.13;97827.44;4901869;29;20125;-73
2022/04/05 10:20:50;;;;;;;5.70;3.53;;;;;;;13.58;22.09;97833.56;4901572;29;20046;-71
2022/04/05 10:23:19;;;;;;;3.85;3.42;;;;;;;11.90;24.23;97811.84;4888435;29;20051;-71
2022/04/05 10:25:43;;;;;;;4.03;3.15;;;;;;;11.17;24.75;97813.34;4888961;29;20043;-72
2022/04/05 10:28:08;;;;;;;8.15;4.40;;;;;;;9.86;26.48;97834.47;4911859;28;20045;-72
2022/04/05 10:30:41;;;;;;;4.88;3.72;;;;;;;10.45;26.70;97809.97;5000010;28;20457;-72
2022/04/05 10:33:22;;;;;;;7.35;3.80;;;;;;;10.47;26.25;97821.31;4998056;28;20036;-74
2022/04/05 10:35:59;;;;;;;5.43;3.85;;;;;;;10.22;27.08;97814.09;4997886;28;20098;-72
2022/04/05 10:38:24;;;;;;;5.97;3.30;;;;;;;9.94;27.22;97812.41;4997528;28;20045;-73
2022/04/05 10:41:12;;;;;;;7.05;4.07;;;;;;;10.28;27.39;97815.28;4997816;28;20419;-72
2022/04/05 10:43:40;;;;;;;7.20;4.10;;;;;;;9.67;28.10;97803.50;4997381;28;20070;-72
2022/04/05 10:46:05;;;;;;;4.97;3.40;;;;;;;9.66;27.67;97812.47;4997405;28;20079;-72
2022/04/05 10:48:31;;;;;;;6.90;4.60;;;;;;;8.71;28.90;97796.72;4981049;28;20407;-72
2022/04/05 10:50:59;;;;;;;7.32;3.72;;;;;;;8.84;28.65;97796.41;5001122;28;20128;-74
2022/04/05 10:56:27;;;;;;;4.90;3.17;;;;;;;8.17;29.76;97809.75;5010605;28;20496;-74
2022/04/05 10:58:52;;;;;;;3.88;2.83;;;;;;;7.98;29.52;97805.25;5015234;28;20428;-74
2022/04/05 11:01:22;;;;;;;3.72;3.22;;;;;;;7.54;30.02;97798.63;4981037;28;20044;-73
2022/04/05 11:04:16;;;;;;;5.28;3.42;;;;;;;7.61;30.83;97805.06;5013993;28;20049;-73
2022/04/05 11:07:02;;;;;;;3.75;3.15;;;;;;;7.73;31.10;97792.50;5015126;28;20052;-72
2022/04/05 11:09:33;;;;;;;8.10;3.40;;;;;;;8.14;29.91;97799.38;5008394;28;20040;-75
2022/04/05 11:12:01;;;;;;;4.93;3.42;;;;;;;7.63;30.34;97796.00;4994867;28;20051;-76
2022/04/05 11:14:35;;;;;;;2.60;2.05;;;;;;;7.81;30.80;97797.97;5001699;28;20513;-74
2022/04/05 11:17:05;;;;;;;5.10;2.43;;;;;;;7.61;31.08;97795.28;5013623;28;20087;-74
2022/04/05 11:19:30;;;;;;;7.10;3.63;;;;;;;7.58;31.08;97792.06;5003400;28;20732;-73
2022/04/05 11:21:59;;;;;;;4.80;3.92;;;;;;;7.09;31.85;97782.28;5017710;28;20067;-72
2022/04/05 11:24:49;;;;;;;5.72;3.72;;;;;;;7.28;31.40;97783.19;5017046;28;20053;-74
2022/04/05 11:27:34;;;;;;;5.47;3.42;;;;;;;7.41;31.55;97780.31;5019471;28;20127;-74
2022/04/05 11:30:21;;;;;;;3.63;2.35;;;;;;;7.45;31.33;97796.78;5017785;28;20102;-74
2022/04/05 11:33:16;;;;;;;6.25;4.00;;;;;;;6.95;31.75;97783.47;5016574;28;20037;-74
2022/04/05 11:35:49;;;;;;;4.50;3.20;;;;;;;6.81;32.32;97786.47;5005026;28;20048;-72
2022/04/05 11:38:17;;;;;;;6.50;3.42;;;;;;;6.57;32.26;97784.94;5012602;28;20083;-71